Lockport-Weather Station Historical Data
 
Daily Summary for June 16, 2021 Units:  English    Metric   Both
Daily Weekly Monthly Yearly Custom
  Current: High: Low: Average:
Temperature: 66.8 °F 72.1 °F 60.1 °F 65.3 °F
Dew Point: 41.7 °F 48.9 °F 36.2 °F 43.8 °F
Humidity: 40% 59% 28.2% 47%
Wind Speed: 0.7mph 5.3mph 0mph 2.4mph
Wind Gust: 2.4mph 15.6mph - -
WindWNW - - WNW
Pressure: 30.00 in 30.05 in 29.93 in -
Precipitation: 0.00 in      
 
 
Tabular Data for June 16, 2021
Time Temperature Dew Point Pressure Wind Wind Speed Wind Gust Humidity Rainfall Rate (Hourly) solar
00:04 69.4 °F 48.9 °F 29.93 in NW 1.2 mph 4.8 mph 48% 0.00 in W/m2
00:09 69.3 °F 48.8 °F 29.93 in NNW 0.7 mph 4.8 mph 48% 0.00 in W/m2
00:14 69.1 °F 48.6 °F 29.93 in NNW 0.9 mph 4.8 mph 48% 0.00 in W/m2
00:19 69 °F 48.5 °F 29.93 in NNW 0.4 mph 3.6 mph 48% 0.00 in W/m2
00:24 68.9 °F 48.4 °F 29.94 in NNW 1 mph 4.8 mph 48% 0.00 in W/m2
00:29 68.7 °F 48.2 °F 29.94 in NNW 0.6 mph 4.8 mph 48% 0.00 in W/m2
00:34 68.6 °F 48.2 °F 29.94 in NNW 0.6 mph 4.8 mph 48.1% 0.00 in W/m2
00:39 68.5 °F 48.6 °F 29.94 in NNW 0.6 mph 3.6 mph 49% 0.00 in W/m2
00:44 68.4 °F 48.5 °F 29.94 in NNW 0.8 mph 3.6 mph 49% 0.00 in W/m2
00:49 68.3 °F 48.4 °F 29.94 in NNW 0.8 mph 3.6 mph 49% 0.00 in W/m2
00:54 68.1 °F 48.2 °F 29.94 in NNW 0.4 mph 3.6 mph 49% 0.00 in W/m2
00:59 68 °F 48.1 °F 29.94 in NNW 0.7 mph 3.6 mph 49% 0.00 in W/m2
01:04 67.9 °F 48 °F 29.94 in NNW 0.8 mph 3.6 mph 49% 0.00 in W/m2
01:09 67.8 °F 47.9 °F 29.94 in NNW 1.4 mph 3.6 mph 49% 0.00 in W/m2
01:14 67.7 °F 47.8 °F 29.94 in NNW 2.7 mph 8.4 mph 49% 0.00 in W/m2
01:19 67.5 °F 47.7 °F 29.94 in NNE 2.1 mph 8.4 mph 49% 0.00 in W/m2
01:24 67.4 °F 47.6 °F 29.94 in North 2.1 mph 8.4 mph 49% 0.00 in W/m2
01:29 67.3 °F 47.5 °F 29.94 in NNW 1.9 mph 8.4 mph 49% 0.00 in W/m2
01:34 67.2 °F 47.4 °F 29.94 in North 2.5 mph 6 mph 49% 0.00 in W/m2
01:39 67 °F 47.2 °F 29.95 in NNW 2.2 mph 6 mph 49% 0.00 in W/m2
01:44 66.9 °F 47.6 °F 29.95 in North 2.8 mph 9.6 mph 50% 0.00 in W/m2
01:49 66.8 °F 47.6 °F 29.95 in North 2.9 mph 9.6 mph 50% 0.00 in W/m2
01:54 66.7 °F 47.5 °F 29.95 in NNW 2.6 mph 9.6 mph 50% 0.00 in W/m2
01:59 66.6 °F 47.4 °F 29.95 in North 3.5 mph 7.2 mph 50% 0.00 in W/m2
02:04 66.5 °F 47.3 °F 29.95 in North 4 mph 7.2 mph 50% 0.00 in W/m2
02:09 66.3 °F 47.1 °F 29.95 in North 4.6 mph 9.6 mph 50% 0.00 in W/m2
02:14 66.2 °F 47 °F 29.96 in North 4.1 mph 9.6 mph 50% 0.00 in W/m2
02:19 66.1 °F 46.9 °F 29.96 in North 4.1 mph 9.6 mph 50% 0.00 in W/m2
02:24 65.9 °F 46.7 °F 29.96 in North 4.1 mph 9.6 mph 50% 0.00 in W/m2
02:29 65.8 °F 46.6 °F 29.96 in North 4 mph 9.6 mph 50% 0.00 in W/m2
02:34 65.7 °F 46.5 °F 29.96 in North 4.1 mph 8.4 mph 50% 0.00 in W/m2
02:39 65.6 °F 46.5 °F 29.96 in North 3.8 mph 8.4 mph 50% 0.00 in W/m2
02:44 65.5 °F 46.4 °F 29.97 in North 3.7 mph 8.4 mph 50% 0.00 in W/m2
02:49 65.4 °F 46.5 °F 29.97 in North 3 mph 7.2 mph 50.5% 0.00 in W/m2
02:54 65.3 °F 46.6 °F 29.97 in North 2.7 mph 7.2 mph 50.8% 0.00 in W/m2
02:59 65.2 °F 46.1 °F 29.97 in North 3 mph 6 mph 50.1% 0.00 in W/m2
03:04 65.1 °F 46.2 °F 29.97 in North 2.9 mph 7.2 mph 50.4% 0.00 in W/m2
03:09 65 °F 46.4 °F 29.97 in North 3 mph 7.2 mph 51% 0.00 in W/m2
03:14 64.9 °F 46.3 °F 29.97 in North 2.6 mph 7.2 mph 51% 0.00 in W/m2
03:19 64.8 °F 46.2 °F 29.97 in North 2.4 mph 6 mph 51% 0.00 in W/m2
03:24 64.7 °F 46.1 °F 29.97 in NNW 2.3 mph 6 mph 51% 0.00 in W/m2
03:29 64.6 °F 46.1 °F 29.98 in NNW 1.2 mph 6 mph 51% 0.00 in W/m2
03:34 64.5 °F 46 °F 29.98 in NNW 0.4 mph 4.8 mph 51% 0.00 in W/m2
03:39 64.4 °F 45.9 °F 29.98 in NNW 0.1 mph 3.6 mph 51% 0.00 in W/m2
03:44 64.3 °F 45.8 °F 29.98 in NNW 0.3 mph 3.6 mph 51% 0.00 in W/m2
03:49 64.2 °F 45.7 °F 29.98 in NNW 0.1 mph 1.2 mph 51% 0.00 in W/m2
03:54 64.1 °F 45.6 °F 29.98 in Calm   1.2 mph 51% 0.00 in W/m2
03:59 64 °F 45.5 °F 29.99 in Calm   1.2 mph 51% 0.00 in W/m2
04:04 63.9 °F 45.4 °F 29.99 in Calm   1.2 mph 51% 0.00 in W/m2
04:09 63.8 °F 45.3 °F 29.99 in NNW 0.1 mph 1.2 mph 51% 0.00 in W/m2
04:14 63.7 °F 45.2 °F 29.99 in NNW 0.1 mph 1.2 mph 51% 0.00 in W/m2
04:19 63.7 °F 45.2 °F 29.99 in NNW 0.2 mph 2.4 mph 51% 0.00 in W/m2
04:24 63.6 °F 45.1 °F 29.99 in NNW 0.3 mph 2.4 mph 51% 0.00 in W/m2
04:29 63.5 °F 45 °F 29.98 in NNW 0.1 mph 2.4 mph 51% 0.00 in W/m2
04:34 63.4 °F 45.2 °F 29.98 in Calm   2.4 mph 51.5% 0.00 in W/m2
04:39 63.3 °F 45.3 °F 29.99 in NNW 0.3 mph 2.4 mph 51.8% 0.00 in W/m2
04:44 63.2 °F 45.3 °F 29.99 in Calm   2.4 mph 52% 0.00 in W/m2
04:49 63.1 °F 45.2 °F 29.99 in NNW 0.1 mph 2.4 mph 52% 0.00 in W/m2
04:54 63 °F 45.1 °F 29.99 in NNW 0.5 mph 2.4 mph 52% 0.00 in W/m2
04:59 62.9 °F 45 °F 29.99 in NNW 0.3 mph 2.4 mph 52% 0.00 in W/m2
05:04 62.8 °F 44.9 °F 29.99 in NNW 0.1 mph 2.4 mph 52% 0.00 in W/m2
05:09 62.7 °F 44.8 °F 29.99 in NNW 0.3 mph 2.4 mph 52% 0.00 in W/m2
05:14 62.6 °F 44.7 °F 29.99 in NNW 0.5 mph 2.4 mph 52% 0.00 in W/m2
05:19 62.5 °F 44.6 °F 29.99 in NNW 0.8 mph 2.4 mph 52% 0.00 in W/m2
05:24 62.4 °F 44.5 °F 29.99 in NNW 0.4 mph 2.4 mph 52% 0.00 in W/m2
05:29 62.3 °F 44.4 °F 30.00 in NNW 0.3 mph 2.4 mph 52% 0.00 in W/m2
05:34 62.2 °F 44.3 °F 30.00 in NNW 0.4 mph 2.4 mph 52% 0.00 in W/m2
05:39 62.1 °F 44.3 °F 30.00 in NNW 0.4 mph 2.4 mph 52% 0.00 in W/m2
05:44 62 °F 44.2 °F 30.00 in Calm   2.4 mph 52% 0.00 in W/m2
05:49 61.9 °F 44.1 °F 30.00 in Calm   2.4 mph 52% 0.00 in W/m2
05:54 61.9 °F 44.1 °F 30.00 in NNW 0.3 mph 2.4 mph 52% 0.00 in W/m2
05:59 61.8 °F 44 °F 30.00 in NNW 0.5 mph 2.4 mph 52% 0.00 in W/m2
06:04 61.6 °F 43.8 °F 30.01 in NNW 0.9 mph 3.6 mph 52% 0.00 in W/m2
06:09 61.6 °F 43.8 °F 30.01 in NNW 0.5 mph 3.6 mph 52% 0.00 in W/m2
06:14 61.5 °F 43.7 °F 30.01 in NNW 1 mph 3.6 mph 52% 0.00 in W/m2
06:19 61.4 °F 43.6 °F 30.01 in NNW 1.4 mph 3.6 mph 52% 0.00 in W/m2
06:24 61.3 °F 43.5 °F 30.01 in NNW 2.4 mph 4.8 mph 52% 0.00 in W/m2
06:29 61.2 °F 43.9 °F 30.01 in NNW 2.3 mph 4.8 mph 52.9% 0.00 in W/m2
06:34 61.1 °F 43.8 °F 30.01 in North 3.1 mph 6 mph 53% 0.00 in W/m2
06:39 61.1 °F 43.8 °F 30.02 in North 3.5 mph 6 mph 53% 0.00 in W/m2
06:44 61 °F 43.7 °F 30.02 in North 2.8 mph 6 mph 53% 0.00 in W/m2
06:49 60.9 °F 43.6 °F 30.02 in North 2.5 mph 6 mph 53% 0.00 in W/m2
06:54 60.9 °F 43.6 °F 30.02 in North 3.5 mph 6 mph 53% 0.00 in W/m2
06:59 60.8 °F 43.6 °F 30.02 in NNW 3.6 mph 6 mph 53% 0.00 in W/m2
07:04 60.8 °F 43.9 °F 30.02 in North 3.6 mph 6 mph 53.8% 0.00 in W/m2
07:09 60.7 °F 44.1 °F 30.02 in North 3.1 mph 6 mph 54.4% 0.00 in W/m2
07:14 60.7 °F 44.4 °F 30.02 in NNW 3 mph 6 mph 55% 0.00 in W/m2
07:19 60.6 °F 44.5 °F 30.02 in NNW 2.7 mph 6 mph 55.3% 0.00 in W/m2
07:24 60.5 °F 44.7 °F 30.02 in North 3.5 mph 7.2 mph 56% 0.00 in W/m2
07:29 60.5 °F 44.7 °F 30.02 in NNE 2.8 mph 8.4 mph 56% 0.00 in W/m2
07:34 60.4 °F 45 °F 30.02 in North 2.6 mph 8.4 mph 56.8% 0.00 in W/m2
07:39 60.4 °F 45.1 °F 30.02 in North 3.3 mph 8.4 mph 57% 0.00 in W/m2
07:44 60.3 °F 45 °F 30.02 in NNE 2.6 mph 7.2 mph 57% 0.00 in W/m2
07:49 60.3 °F 45 °F 30.02 in North 2.1 mph 7.2 mph 57% 0.00 in W/m2
07:54 60.2 °F 44.9 °F 30.02 in NNW 3.3 mph 7.2 mph 57% 0.00 in W/m2
07:59 60.2 °F 45.3 °F 30.02 in North 4.4 mph 8.4 mph 57.8% 0.00 in W/m2
08:04 60.2 °F 45.4 °F 30.02 in NNW 3 mph 8.4 mph 58% 0.00 in W/m2
08:09 60.2 °F 45.4 °F 30.02 in North 2.1 mph 8.4 mph 58% 0.00 in W/m2
08:14 60.1 °F 45.3 °F 30.02 in NNW 1.5 mph 7.2 mph 58% 0.00 in W/m2
08:19 60.1 °F 45.3 °F 30.02 in NNW 1.9 mph 7.2 mph 58% 0.00 in W/m2
08:24 60.1 °F 45.3 °F 30.02 in North 2.2 mph 7.2 mph 58% 0.00 in W/m2
08:29 60.1 °F 45.6 °F 30.02 in NNW 3.3 mph 8.4 mph 58.7% 0.00 in W/m2
08:34 60.1 °F 45.7 °F 30.02 in NNW 3.5 mph 9.6 mph 59% 0.00 in W/m2
08:39 60.1 °F 45.7 °F 30.02 in North 2.7 mph 9.6 mph 59% 0.00 in W/m2
08:44 60.2 °F 45.8 °F 30.03 in NNW 3.2 mph 9.6 mph 59% 0.00 in W/m2
08:49 60.2 °F 45.8 °F 30.03 in North 3.8 mph 8.4 mph 59% 0.00 in W/m2
08:54 60.2 °F 45.8 °F 30.03 in NNW 2.9 mph 8.4 mph 59% 0.00 in W/m2
08:59 60.2 °F 45.8 °F 30.02 in NNW 2.5 mph 8.4 mph 59% 0.00 in W/m2
09:04 60.2 °F 45.8 °F 30.02 in North 1.3 mph 8.4 mph 59% 0.00 in W/m2
09:09 60.2 °F 45.8 °F 30.02 in North 2.1 mph 8.4 mph 59% 0.00 in W/m2
09:14 60.2 °F 45.8 °F 30.02 in NNW 2.6 mph 8.4 mph 59% 0.00 in W/m2
09:19 60.3 °F 45.9 °F 30.02 in North 2.1 mph 8.4 mph 59% 0.00 in W/m2
09:24 60.3 °F 45.9 °F 30.02 in North 2.6 mph 8.4 mph 59% 0.00 in W/m2
09:29 60.3 °F 45.9 °F 30.02 in NNE 2.3 mph 6 mph 59% 0.00 in W/m2
09:34 60.4 °F 46 °F 30.02 in NW 3.5 mph 7.2 mph 59% 0.00 in W/m2
09:39 60.4 °F 46 °F 30.02 in WSW 2.3 mph 7.2 mph 58.9% 0.00 in W/m2
09:44 60.5 °F 45.6 °F 30.02 in North 3.4 mph 8.4 mph 58% 0.00 in W/m2
09:49 60.5 °F 45.6 °F 30.02 in NW 2.6 mph 8.4 mph 58% 0.00 in W/m2
09:54 60.6 °F 45.7 °F 30.03 in West 1.6 mph 8.4 mph 58% 0.00 in W/m2
09:59 60.7 °F 45.8 °F 30.03 in SW 2.5 mph 7.2 mph 58% 0.00 in W/m2
10:04 60.8 °F 45.9 °F 30.03 in WNW 2.9 mph 7.2 mph 58% 0.00 in W/m2
10:09 60.8 °F 45.9 °F 30.03 in North 1.9 mph 7.2 mph 58% 0.00 in W/m2
10:14 60.9 °F 46 °F 30.03 in North 1.8 mph 7.2 mph 58% 0.00 in W/m2
10:19 61 °F 46.1 °F 30.03 in NNW 2.7 mph 9.6 mph 58% 0.00 in W/m2
10:24 61.1 °F 46.2 °F 30.03 in WNW 2.6 mph 9.6 mph 58% 0.00 in W/m2
10:29 61.2 °F 46.3 °F 30.03 in NW 2.5 mph 9.6 mph 58% 0.00 in W/m2
10:34 61.3 °F 46.4 °F 30.03 in NW 2.3 mph 8.4 mph 58% 0.00 in W/m2
10:39 61.4 °F 46.5 °F 30.03 in West 2.5 mph 8.4 mph 58% 0.00 in W/m2
10:44 61.5 °F 46.5 °F 30.03 in WNW 3.2 mph 8.4 mph 57.8% 0.00 in W/m2
10:49 61.6 °F 46.4 °F 30.03 in West 2.4 mph 8.4 mph 57.3% 0.00 in W/m2
10:54 61.7 °F 46.3 °F 30.03 in NNW 4.1 mph 12 mph 57% 0.00 in W/m2
10:59 61.9 °F 46.5 °F 30.03 in NNE 4.1 mph 12 mph 57% 0.00 in W/m2
11:04 62 °F 46.6 °F 30.03 in North 5.3 mph 12 mph 57% 0.00 in W/m2
11:09 62.1 °F 46.7 °F 30.04 in NNW 3.4 mph 10.8 mph 57% 0.00 in W/m2
11:14 62.2 °F 46.8 °F 30.04 in NNW 1.9 mph 10.8 mph 57% 0.00 in W/m2
11:19 62.3 °F 46.7 °F 30.04 in NW 3.2 mph 9.6 mph 56.5% 0.00 in W/m2
11:24 62.5 °F 46.6 °F 30.04 in North 2.7 mph 9.6 mph 56% 0.00 in W/m2
11:29 62.6 °F 46.7 °F 30.04 in WNW 4 mph 12 mph 56% 0.00 in W/m2
11:34 62.7 °F 46.8 °F 30.05 in WNW 2.8 mph 12 mph 56% 0.00 in W/m2
11:39 62.9 °F 46.9 °F 30.05 in NNW 3.4 mph 12 mph 55.8% 0.00 in W/m2
11:44 63 °F 46.6 °F 30.05 in WNW 3.9 mph 14.4 mph 55% 0.00 in W/m2
11:49 63.1 °F 46.3 °F 30.05 in West 4 mph 14.4 mph 54.1% 0.00 in W/m2
11:54 63.2 °F 44.4 °F 30.05 in West 3.5 mph 14.4 mph 50.3% 0.00 in W/m2
11:59 63.4 °F 43.6 °F 30.04 in West 3.2 mph 9.6 mph 48.6% 0.00 in W/m2
12:04 63.4 °F 43.4 °F 30.05 in WNW 4 mph 9.6 mph 48% 0.00 in W/m2
12:09 63.6 °F 43.9 °F 30.05 in WSW 2.6 mph 9.6 mph 48.8% 0.00 in W/m2
12:14 63.6 °F 43 °F 30.04 in West 4.1 mph 12 mph 47.1% 0.00 in W/m2
12:19 63.7 °F 42.6 °F 30.04 in West 3 mph 12 mph 46.1% 0.00 in W/m2
12:24 63.7 °F 43 °F 30.04 in NW 3.7 mph 12 mph 46.8% 0.00 in W/m2
12:29 63.8 °F 42.9 °F 30.04 in West 3.5 mph 12 mph 46.5% 0.00 in W/m2
12:34 63.9 °F 43.1 °F 30.04 in NNW 3.4 mph 13.2 mph 46.7% 0.00 in W/m2
12:39 63.9 °F 43.2 °F 30.04 in WSW 2.9 mph 13.2 mph 46.9% 0.00 in W/m2
12:44 64 °F 44.7 °F 30.04 in NNE 3.7 mph 13.2 mph 49.5% 0.00 in W/m2
12:49 64.1 °F 44 °F 30.03 in West 2.9 mph 8.4 mph 48.2% 0.00 in W/m2
12:54 64.1 °F 43.7 °F 30.03 in SSW 2.6 mph 8.4 mph 47.5% 0.00 in W/m2
12:59 64.2 °F 43.9 °F 30.03 in WNW 3.7 mph 9.6 mph 47.7% 0.00 in W/m2
13:04 64.3 °F 43.6 °F 30.03 in WNW 2.9 mph 10.8 mph 47% 0.00 in W/m2
13:09 64.4 °F 44 °F 30.03 in West 3.2 mph 10.8 mph 47.5% 0.00 in W/m2
13:14 64.5 °F 44.4 °F 30.03 in South 2.2 mph 10.8 mph 48.1% 0.00 in W/m2
13:19 64.5 °F 44.2 °F 30.03 in WSW 3.5 mph 8.4 mph 47.6% 0.00 in W/m2
13:24 64.7 °F 44.3 °F 30.03 in WSW 2.6 mph 8.4 mph 47.7% 0.00 in W/m2
13:29 64.7 °F 43.9 °F 30.03 in West 3.5 mph 8.4 mph 46.8% 0.00 in W/m2
13:34 64.8 °F 43.6 °F 30.02 in WSW 2.5 mph 8.4 mph 46.2% 0.00 in W/m2
13:39 64.9 °F 44.3 °F 30.02 in WSW 3.5 mph 9.6 mph 47.3% 0.00 in W/m2
13:44 65.1 °F 43.7 °F 30.02 in West 3.7 mph 9.6 mph 45.9% 0.00 in W/m2
13:49 65.2 °F 43.4 °F 30.02 in West 2.7 mph 9.6 mph 45.2% 0.00 in W/m2
13:54 65.3 °F 42.9 °F 30.02 in WNW 2.8 mph 8.4 mph 44.2% 0.00 in W/m2
13:59 65.4 °F 43 °F 30.02 in NW 2.6 mph 7.2 mph 44.3% 0.00 in W/m2
14:04 65.5 °F 43.1 °F 30.02 in West 3.5 mph 8.4 mph 44.3% 0.00 in W/m2
14:09 65.5 °F 43.2 °F 30.02 in WSW 3.1 mph 8.4 mph 44.3% 0.00 in W/m2
14:14 65.6 °F 44 °F 30.02 in WNW 3.4 mph 9.6 mph 45.5% 0.00 in W/m2
14:19 65.7 °F 44.1 °F 30.02 in WNW 4.5 mph 14.4 mph 45.5% 0.00 in W/m2
14:24 65.8 °F 42.8 °F 30.02 in NW 2.8 mph 14.4 mph 43.2% 0.00 in W/m2
14:29 65.9 °F 42.9 °F 30.02 in WSW 3.7 mph 14.4 mph 43.2% 0.00 in W/m2
14:34 66.1 °F 42.9 °F 30.02 in West 2.9 mph 10.8 mph 43% 0.00 in W/m2
14:39 66.2 °F 43.5 °F 30.02 in WSW 2.8 mph 10.8 mph 43.8% 0.00 in W/m2
14:44 66.4 °F 43.8 °F 30.02 in West 3.1 mph 7.2 mph 44% 0.00 in W/m2
14:49 66.5 °F 43.5 °F 30.02 in WSW 5 mph 12 mph 43.4% 0.00 in W/m2
14:54 66.6 °F 43.9 °F 30.01 in WSW 3.2 mph 12 mph 43.8% 0.00 in W/m2
14:59 66.8 °F 44.1 °F 30.01 in WNW 3.4 mph 12 mph 43.8% 0.00 in W/m2
15:04 66.9 °F 43.1 °F 30.01 in West 3.6 mph 8.4 mph 42% 0.00 in W/m2
15:09 67.1 °F 43.4 °F 30.01 in WSW 3.8 mph 9.6 mph 42.3% 0.00 in W/m2
15:14 67.2 °F 43.2 °F 30.01 in NW 3.6 mph 9.6 mph 41.8% 0.00 in W/m2
15:19 67.3 °F 42.5 °F 30.01 in NNW 4.4 mph 14.4 mph 40.7% 0.00 in W/m2
15:24 67.4 °F 42.6 °F 30.00 in West 4.6 mph 14.4 mph 40.6% 0.00 in W/m2
15:29 67.5 °F 41.7 °F 30.00 in WNW 3.9 mph 14.4 mph 39.1% 0.00 in W/m2
15:34 67.6 °F 41.3 °F 30.00 in WSW 3.5 mph 10.8 mph 38.3% 0.00 in W/m2
15:39 67.7 °F 41.4 °F 30.00 in West 4.6 mph 10.8 mph 38.5% 0.00 in W/m2
15:44 67.8 °F 40.9 °F 30.00 in NW 3.2 mph 10.8 mph 37.5% 0.00 in W/m2
15:49 67.9 °F 41 °F 30.00 in NW 3.4 mph 10.8 mph 37.5% 0.00 in W/m2
15:54 68.1 °F 39.8 °F 30.00 in WNW 3.4 mph 9.6 mph 35.7% 0.00 in W/m2
15:59 68.2 °F 40.3 °F 30.00 in West 3.8 mph 9.6 mph 36.2% 0.00 in W/m2
16:04 68.4 °F 40.6 °F 30.00 in West 3 mph 9.6 mph 36.3% 0.00 in W/m2
16:09 68.5 °F 41.4 °F 30.00 in NNW 2.3 mph 9.6 mph 37.2% 0.00 in W/m2
16:14 68.7 °F 42.4 °F 29.99 in WSW 2.9 mph 10.8 mph 38.5% 0.00 in W/m2
16:19 68.9 °F 41.4 °F 29.99 in NNW 4.1 mph 12 mph 36.9% 0.00 in W/m2
16:24 69.1 °F 40.2 °F 29.99 in WNW 3.2 mph 12 mph 34.9% 0.00 in W/m2
16:29 69.4 °F 39.5 °F 29.99 in NW 4 mph 12 mph 33.7% 0.00 in W/m2
16:34 69.5 °F 40.1 °F 29.99 in West 3.2 mph 9.6 mph 34.2% 0.00 in W/m2
16:39 69.7 °F 40.3 °F 29.99 in NW 4 mph 9.6 mph 34.2% 0.00 in W/m2
16:44 69.8 °F 39.9 °F 29.99 in West 3.4 mph 9.6 mph 33.7% 0.00 in W/m2
16:49 70 °F 40.3 °F 29.99 in West 2.9 mph 9.6 mph 34% 0.00 in W/m2
16:54 70.2 °F 40.5 °F 29.99 in WSW 3.4 mph 7.2 mph 34% 0.00 in W/m2
16:59 70.3 °F 41.1 °F 29.99 in West 3 mph 7.2 mph 34.7% 0.00 in W/m2
17:04 70.5 °F 40.8 °F 29.99 in WNW 2.4 mph 8.4 mph 34% 0.00 in W/m2
17:09 70.7 °F 43.2 °F 29.99 in WSW 3.7 mph 15.6 mph 37.2% 0.00 in W/m2
17:14 70.8 °F 42.9 °F 29.99 in SW 2.4 mph 15.6 mph 36.6% 0.00 in W/m2
17:19 71.1 °F 43.3 °F 29.98 in WSW 4.2 mph 15.6 mph 36.7% 0.00 in W/m2
17:24 71.3 °F 43.2 °F 29.98 in WNW 2.9 mph 8.4 mph 36.4% 0.00 in W/m2
17:29 71.4 °F 40.8 °F 29.98 in WSW 2.4 mph 8.4 mph 33% 0.00 in W/m2
17:34 71.6 °F 41.2 °F 29.98 in West 2.5 mph 7.2 mph 33.3% 0.00 in W/m2
17:39 71.8 °F 41.7 °F 29.98 in WSW 1.8 mph 9.6 mph 33.8% 0.00 in W/m2
17:44 71.9 °F 41.4 °F 29.98 in West 2.5 mph 9.6 mph 33.2% 0.00 in W/m2
17:49 72.1 °F 41 °F 29.98 in West 2.2 mph 9.6 mph 32.6% 0.00 in W/m2
17:54 72.1 °F 39.8 °F 29.98 in West 2.8 mph 7.2 mph 31% 0.00 in W/m2
17:59 72.1 °F 39.1 °F 29.98 in WSW 3.1 mph 9.6 mph 30.2% 0.00 in W/m2
18:04 72.1 °F 39.2 °F 29.98 in West 3.1 mph 9.6 mph 30.3% 0.00 in W/m2
18:09 72 °F 39.3 °F 29.97 in WSW 2.8 mph 9.6 mph 30.5% 0.00 in W/m2
18:14 72 °F 39.1 °F 29.97 in West 3.3 mph 8.4 mph 30.3% 0.00 in W/m2
18:19 71.8 °F 37.8 °F 29.97 in WNW 2.1 mph 8.4 mph 29% 0.00 in W/m2
18:24 71.7 °F 38.3 °F 29.97 in West 2.3 mph 8.4 mph 29.7% 0.00 in W/m2
18:29 71.6 °F 37.9 °F 29.97 in WNW 2.1 mph 6 mph 29.4% 0.00 in W/m2
18:34 71.4 °F 37.9 °F 29.97 in WNW 2.7 mph 6 mph 29.5% 0.00 in W/m2
18:39 71.2 °F 37.3 °F 29.97 in WNW 2.4 mph 7.2 mph 29% 0.00 in W/m2
18:44 71 °F 36.4 °F 29.97 in West 2.7 mph 7.2 mph 28.2% 0.00 in W/m2
18:49 70.8 °F 36.3 °F 29.97 in WSW 3 mph 7.2 mph 28.3% 0.00 in W/m2
18:54 70.6 °F 36.2 °F 29.97 in West 4 mph 7.2 mph 28.3% 0.00 in W/m2
18:59 70.5 °F 36.7 °F 29.97 in WSW 2 mph 7.2 mph 29% 0.00 in W/m2
19:04 70.4 °F 37.1 °F 29.97 in West 1.9 mph 7.2 mph 29.6% 0.00 in W/m2
19:09 70.3 °F 37.2 °F 29.97 in West 2.6 mph 6 mph 29.8% 0.00 in W/m2
19:14 70.3 °F 37.4 °F 29.97 in WSW 2.7 mph 7.2 mph 30% 0.00 in W/m2
19:19 70.2 °F 37.7 °F 29.97 in NNW 2.2 mph 7.2 mph 30.5% 0.00 in W/m2
19:24 70.1 °F 37.4 °F 29.97 in WNW 3.5 mph 10.8 mph 30.2% 0.00 in W/m2
19:29 70 °F 37.1 °F 29.98 in West 2.4 mph 10.8 mph 30% 0.00 in W/m2
19:34 70 °F 37.4 °F 29.97 in NNW 2 mph 10.8 mph 30.3% 0.00 in W/m2
19:39 69.9 °F 37.6 °F 29.98 in NNW 3.9 mph 9.6 mph 30.7% 0.00 in W/m2
19:44 69.8 °F 37.8 °F 29.97 in SW 1.2 mph 9.6 mph 31% 0.00 in W/m2
19:49 69.7 °F 37.7 °F 29.97 in North 2.7 mph 9.6 mph 31% 0.00 in W/m2
19:54 69.5 °F 37.5 °F 29.98 in NW 1.6 mph 7.2 mph 31% 0.00 in W/m2
19:59 69.4 °F 38.1 °F 29.98 in WNW 1.3 mph 7.2 mph 31.8% 0.00 in W/m2
20:04 69.2 °F 38.5 °F 29.98 in NNW 1.1 mph 4.8 mph 32.4% 0.00 in W/m2
20:09 69.1 °F 38.6 °F 29.98 in NW 3 mph 8.4 mph 32.8% 0.00 in W/m2
20:14 68.9 °F 37.8 °F 29.98 in NW 2.5 mph 8.4 mph 32% 0.00 in W/m2
20:19 68.8 °F 37.7 °F 29.98 in NNW 2.2 mph 8.4 mph 32% 0.00 in W/m2
20:24 68.6 °F 38.3 °F 29.98 in North 1.7 mph 7.2 mph 33% 0.00 in W/m2
20:29 68.4 °F 38.5 °F 29.98 in North 0.6 mph 6 mph 33.5% 0.00 in W/m2
20:34 68.3 °F 39.2 °F 29.98 in NNW 0.9 mph 4.8 mph 34.5% 0.00 in W/m2
20:39 68.1 °F 40.5 °F 29.98 in NW 0.6 mph 3.6 mph 36.5% 0.00 in W/m2
20:44 68 °F 40.3 °F 29.98 in NW 1.2 mph 3.6 mph 36.4% 0.00 in W/m2
20:49 67.9 °F 40.3 °F 29.98 in WNW 0.7 mph 3.6 mph 36.5% 0.00 in W/m2
20:54 67.7 °F 41.4 °F 29.98 in WNW 0.6 mph 3.6 mph 38.4% 0.00 in W/m2
20:59 67.6 °F 41.4 °F 29.99 in WNW 0.6 mph 3.6 mph 38.5% 0.00 in W/m2
21:04 67.5 °F 41.2 °F 29.99 in WNW 0.3 mph 2.4 mph 38.3% 0.00 in W/m2
21:09 67.4 °F 42 °F 29.99 in WNW 0.4 mph 2.4 mph 39.6% 0.00 in W/m2
21:14 67.3 °F 42.5 °F 29.99 in WNW 0.4 mph 1.2 mph 40.7% 0.00 in W/m2
21:19 67.1 °F 41.8 °F 29.99 in WNW 0.6 mph 1.2 mph 39.8% 0.00 in W/m2
21:24 67 °F 41.4 °F 29.99 in WNW 0.9 mph 1.2 mph 39.4% 0.00 in W/m2
21:29 66.8 °F 41.7 °F 30.00 in WNW 0.7 mph 2.4 mph 40% 0.00 in W/m2
Lockport, New York, USA
Compliments of Weather Underground - 2.5 mb